sensor_id;sensor_type;location;lat;lon;timestamp;P1;durP1;ratioP1;P2;durP2;ratioP2
11123;SDS011;5616;42.692;23.312;2022-09-17T00:02:11;8.00;;;5.13;;
11123;SDS011;5616;42.692;23.312;2022-09-17T00:04:39;7.07;;;5.30;;
11123;SDS011;5616;42.692;23.312;2022-09-17T00:07:06;8.43;;;5.97;;
11123;SDS011;5616;42.692;23.312;2022-09-17T00:09:34;12.83;;;5.50;;
11123;SDS011;5616;42.692;23.312;2022-09-17T00:12:01;8.90;;;5.00;;
11123;SDS011;5616;42.692;23.312;2022-09-17T00:14:27;10.57;;;6.10;;
11123;SDS011;5616;42.692;23.312;2022-09-17T00:16:54;7.40;;;5.33;;
11123;SDS011;5616;42.692;23.312;2022-09-17T00:19:22;5.80;;;4.80;;
11123;SDS011;5616;42.692;23.312;2022-09-17T00:21:50;8.50;;;5.53;;
11123;SDS011;5616;42.692;23.312;2022-09-17T00:24:18;8.80;;;5.63;;
11123;SDS011;5616;42.692;23.312;2022-09-17T00:26:46;8.27;;;5.20;;
11123;SDS011;5616;42.692;23.312;2022-09-17T00:29:13;8.50;;;5.60;;
11123;SDS011;5616;42.692;23.312;2022-09-17T00:31:40;10.47;;;5.27;;
11123;SDS011;5616;42.692;23.312;2022-09-17T00:34:07;12.50;;;6.77;;
11123;SDS011;5616;42.692;23.312;2022-09-17T00:36:36;10.43;;;5.20;;
11123;SDS011;5616;42.692;23.312;2022-09-17T00:39:07;8.47;;;5.30;;
11123;SDS011;5616;42.692;23.312;2022-09-17T00:41:36;6.23;;;4.60;;
11123;SDS011;5616;42.692;23.312;2022-09-17T00:47:04;8.50;;;4.47;;
11123;SDS011;5616;42.692;23.312;2022-09-17T00:49:33;9.53;;;4.73;;
11123;SDS011;5616;42.692;23.312;2022-09-17T00:52:03;9.70;;;4.83;;
11123;SDS011;5616;42.692;23.312;2022-09-17T00:54:33;7.93;;;4.73;;
11123;SDS011;5616;42.692;23.312;2022-09-17T00:57:02;9.50;;;5.43;;
11123;SDS011;5616;42.692;23.312;2022-09-17T00:59:29;7.90;;;4.90;;
11123;SDS011;5616;42.692;23.312;2022-09-17T01:01:56;6.73;;;4.70;;
11123;SDS011;5616;42.692;23.312;2022-09-17T01:04:24;5.87;;;4.10;;
11123;SDS011;5616;42.692;23.312;2022-09-17T01:06:55;6.67;;;4.33;;
11123;SDS011;5616;42.692;23.312;2022-09-17T01:09:31;5.77;;;3.87;;
11123;SDS011;5616;42.692;23.312;2022-09-17T01:15:06;8.67;;;3.80;;
11123;SDS011;5616;42.692;23.312;2022-09-17T01:17:49;10.67;;;4.20;;
11123;SDS011;5616;42.692;23.312;2022-09-17T01:26:55;6.10;;;4.63;;
11123;SDS011;5616;42.692;23.312;2022-09-17T01:29:48;8.43;;;4.33;;
11123;SDS011;5616;42.692;23.312;2022-09-17T01:32:33;5.90;;;3.90;;
11123;SDS011;5616;42.692;23.312;2022-09-17T01:35:06;7.00;;;3.77;;
11123;SDS011;5616;42.692;23.312;2022-09-17T01:37:41;7.37;;;4.77;;
11123;SDS011;5616;42.692;23.312;2022-09-17T01:40:14;7.40;;;3.57;;
11123;SDS011;5616;42.692;23.312;2022-09-17T01:42:50;5.77;;;3.90;;
11123;SDS011;5616;42.692;23.312;2022-09-17T01:45:24;5.50;;;3.73;;
11123;SDS011;5616;42.692;23.312;2022-09-17T01:47:58;9.23;;;4.37;;
11123;SDS011;5616;42.692;23.312;2022-09-17T01:50:35;7.57;;;4.53;;
11123;SDS011;5616;42.692;23.312;2022-09-17T01:53:05;6.80;;;4.20;;
11123;SDS011;5616;42.692;23.312;2022-09-17T01:55:34;9.37;;;4.33;;
11123;SDS011;5616;42.692;23.312;2022-09-17T01:58:06;6.07;;;3.47;;
11123;SDS011;5616;42.692;23.312;2022-09-17T02:00:37;8.87;;;3.80;;
11123;SDS011;5616;42.692;23.312;2022-09-17T02:03:09;8.53;;;3.93;;
11123;SDS011;5616;42.692;23.312;2022-09-17T02:05:42;5.73;;;3.27;;
11123;SDS011;5616;42.692;23.312;2022-09-17T02:08:14;7.73;;;3.80;;
11123;SDS011;5616;42.692;23.312;2022-09-17T02:10:45;7.57;;;3.70;;
11123;SDS011;5616;42.692;23.312;2022-09-17T02:13:15;4.13;;;3.30;;
11123;SDS011;5616;42.692;23.312;2022-09-17T02:15:48;6.87;;;3.70;;
11123;SDS011;5616;42.692;23.312;2022-09-17T02:18:23;7.17;;;3.40;;
11123;SDS011;5616;42.692;23.312;2022-09-17T02:20:56;10.00;;;3.80;;
11123;SDS011;5616;42.692;23.312;2022-09-17T02:23:29;8.63;;;3.93;;
11123;SDS011;5616;42.692;23.312;2022-09-17T02:26:02;7.23;;;3.90;;
11123;SDS011;5616;42.692;23.312;2022-09-17T02:28:34;5.80;;;3.77;;
11123;SDS011;5616;42.692;23.312;2022-09-17T02:31:07;7.20;;;3.67;;
11123;SDS011;5616;42.692;23.312;2022-09-17T02:33:36;7.03;;;3.53;;
11123;SDS011;5616;42.692;23.312;2022-09-17T02:36:06;6.17;;;3.70;;
11123;SDS011;5616;42.692;23.312;2022-09-17T02:38:33;8.10;;;4.30;;
11123;SDS011;5616;42.692;23.312;2022-09-17T02:41:01;5.37;;;3.50;;
11123;SDS011;5616;42.692;23.312;2022-09-17T02:43:38;11.17;;;4.50;;
11123;SDS011;5616;42.692;23.312;2022-09-17T02:46:17;5.90;;;4.07;;
11123;SDS011;5616;42.692;23.312;2022-09-17T02:48:58;6.47;;;4.20;;
11123;SDS011;5616;42.692;23.312;2022-09-17T02:51:46;6.37;;;3.90;;
11123;SDS011;5616;42.692;23.312;2022-09-17T02:54:25;7.57;;;3.87;;
11123;SDS011;5616;42.692;23.312;2022-09-17T02:56:58;8.00;;;3.53;;
11123;SDS011;5616;42.692;23.312;2022-09-17T02:59:34;7.43;;;3.80;;
11123;SDS011;5616;42.692;23.312;2022-09-17T03:02:07;5.90;;;3.67;;
11123;SDS011;5616;42.692;23.312;2022-09-17T03:04:41;7.43;;;3.63;;
11123;SDS011;5616;42.692;23.312;2022-09-17T03:07:11;6.23;;;3.80;;
11123;SDS011;5616;42.692;23.312;2022-09-17T03:09:38;9.87;;;3.73;;
11123;SDS011;5616;42.692;23.312;2022-09-17T03:12:07;7.50;;;3.67;;
11123;SDS011;5616;42.692;23.312;2022-09-17T03:14:35;6.50;;;3.50;;
11123;SDS011;5616;42.692;23.312;2022-09-17T03:17:02;8.83;;;3.97;;
11123;SDS011;5616;42.692;23.312;2022-09-17T03:19:29;10.10;;;4.63;;
11123;SDS011;5616;42.692;23.312;2022-09-17T03:21:58;9.57;;;4.60;;
11123;SDS011;5616;42.692;23.312;2022-09-17T03:24:25;5.43;;;4.57;;
11123;SDS011;5616;42.692;23.312;2022-09-17T03:26:52;7.83;;;5.07;;
11123;SDS011;5616;42.692;23.312;2022-09-17T03:29:19;7.80;;;4.20;;
11123;SDS011;5616;42.692;23.312;2022-09-17T03:31:46;9.63;;;5.37;;
11123;SDS011;5616;42.692;23.312;2022-09-17T03:34:13;6.93;;;4.70;;
11123;SDS011;5616;42.692;23.312;2022-09-17T03:36:39;8.53;;;5.80;;
11123;SDS011;5616;42.692;23.312;2022-09-17T03:39:08;12.60;;;5.53;;
11123;SDS011;5616;42.692;23.312;2022-09-17T03:41:35;7.60;;;5.70;;
11123;SDS011;5616;42.692;23.312;2022-09-17T03:44:01;9.30;;;5.87;;
11123;SDS011;5616;42.692;23.312;2022-09-17T03:46:28;11.83;;;5.50;;
11123;SDS011;5616;42.692;23.312;2022-09-17T03:48:55;8.73;;;4.40;;
11123;SDS011;5616;42.692;23.312;2022-09-17T03:51:22;7.97;;;4.83;;
11123;SDS011;5616;42.692;23.312;2022-09-17T03:53:49;7.90;;;4.27;;
11123;SDS011;5616;42.692;23.312;2022-09-17T03:56:17;5.90;;;3.90;;
11123;SDS011;5616;42.692;23.312;2022-09-17T03:58:44;6.17;;;3.80;;
11123;SDS011;5616;42.692;23.312;2022-09-17T04:01:11;8.60;;;4.30;;
11123;SDS011;5616;42.692;23.312;2022-09-17T04:03:38;9.03;;;4.17;;
11123;SDS011;5616;42.692;23.312;2022-09-17T04:06:05;6.37;;;2.83;;
11123;SDS011;5616;42.692;23.312;2022-09-17T04:08:32;6.23;;;4.00;;
11123;SDS011;5616;42.692;23.312;2022-09-17T04:11:00;7.67;;;3.83;;
11123;SDS011;5616;42.692;23.312;2022-09-17T04:13:29;8.63;;;4.23;;
11123;SDS011;5616;42.692;23.312;2022-09-17T04:15:56;5.13;;;3.77;;
11123;SDS011;5616;42.692;23.312;2022-09-17T04:18:23;8.77;;;4.07;;
11123;SDS011;5616;42.692;23.312;2022-09-17T04:20:49;9.37;;;4.00;;
11123;SDS011;5616;42.692;23.312;2022-09-17T04:23:17;7.03;;;4.10;;
11123;SDS011;5616;42.692;23.312;2022-09-17T04:25:44;8.47;;;4.53;;
11123;SDS011;5616;42.692;23.312;2022-09-17T04:28:11;9.43;;;4.97;;
11123;SDS011;5616;42.692;23.312;2022-09-17T04:30:39;13.00;;;5.30;;
11123;SDS011;5616;42.692;23.312;2022-09-17T04:33:07;13.03;;;4.93;;
11123;SDS011;5616;42.692;23.312;2022-09-17T04:35:34;9.07;;;5.17;;
11123;SDS011;5616;42.692;23.312;2022-09-17T04:38:01;10.93;;;4.20;;
11123;SDS011;5616;42.692;23.312;2022-09-17T04:40:28;7.47;;;4.77;;
11123;SDS011;5616;42.692;23.312;2022-09-17T04:42:55;9.37;;;4.23;;
11123;SDS011;5616;42.692;23.312;2022-09-17T04:45:27;10.43;;;5.10;;
11123;SDS011;5616;42.692;23.312;2022-09-17T04:47:58;6.33;;;4.50;;
11123;SDS011;5616;42.692;23.312;2022-09-17T04:50:26;5.97;;;4.33;;
11123;SDS011;5616;42.692;23.312;2022-09-17T04:52:52;6.93;;;4.03;;
11123;SDS011;5616;42.692;23.312;2022-09-17T04:55:19;8.80;;;4.13;;
11123;SDS011;5616;42.692;23.312;2022-09-17T04:57:46;9.03;;;4.40;;
11123;SDS011;5616;42.692;23.312;2022-09-17T05:00:14;6.60;;;4.00;;
11123;SDS011;5616;42.692;23.312;2022-09-17T05:02:43;4.90;;;3.60;;
11123;SDS011;5616;42.692;23.312;2022-09-17T05:05:12;7.57;;;4.60;;
11123;SDS011;5616;42.692;23.312;2022-09-17T05:07:40;8.33;;;4.50;;
11123;SDS011;5616;42.692;23.312;2022-09-17T05:10:08;7.27;;;4.40;;
11123;SDS011;5616;42.692;23.312;2022-09-17T05:12:36;7.50;;;3.97;;
11123;SDS011;5616;42.692;23.312;2022-09-17T05:15:03;8.87;;;4.23;;
11123;SDS011;5616;42.692;23.312;2022-09-17T05:17:31;8.43;;;3.93;;
11123;SDS011;5616;42.692;23.312;2022-09-17T05:19:58;10.77;;;3.50;;
11123;SDS011;5616;42.692;23.312;2022-09-17T05:22:26;11.60;;;3.40;;
11123;SDS011;5616;42.692;23.312;2022-09-17T05:24:53;6.17;;;3.00;;
11123;SDS011;5616;42.692;23.312;2022-09-17T05:27:20;9.07;;;3.17;;
11123;SDS011;5616;42.692;23.312;2022-09-17T05:29:46;7.70;;;3.10;;
11123;SDS011;5616;42.692;23.312;2022-09-17T05:32:13;6.50;;;2.83;;
11123;SDS011;5616;42.692;23.312;2022-09-17T05:34:40;6.20;;;2.93;;
11123;SDS011;5616;42.692;23.312;2022-09-17T05:37:08;9.80;;;2.83;;
11123;SDS011;5616;42.692;23.312;2022-09-17T05:39:36;8.73;;;2.70;;
11123;SDS011;5616;42.692;23.312;2022-09-17T05:42:03;5.93;;;3.17;;
11123;SDS011;5616;42.692;23.312;2022-09-17T05:44:30;9.83;;;3.50;;
11123;SDS011;5616;42.692;23.312;2022-09-17T05:46:57;6.97;;;2.93;;
11123;SDS011;5616;42.692;23.312;2022-09-17T05:49:24;5.07;;;2.80;;
11123;SDS011;5616;42.692;23.312;2022-09-17T05:51:51;6.53;;;3.40;;
11123;SDS011;5616;42.692;23.312;2022-09-17T05:54:17;8.13;;;3.57;;
11123;SDS011;5616;42.692;23.312;2022-09-17T05:56:46;7.10;;;3.70;;
11123;SDS011;5616;42.692;23.312;2022-09-17T05:59:13;6.50;;;3.57;;
11123;SDS011;5616;42.692;23.312;2022-09-17T06:01:40;8.47;;;3.90;;
11123;SDS011;5616;42.692;23.312;2022-09-17T06:04:07;9.80;;;5.00;;
11123;SDS011;5616;42.692;23.312;2022-09-17T06:06:34;11.23;;;5.17;;
11123;SDS011;5616;42.692;23.312;2022-09-17T06:09:02;10.17;;;5.07;;
11123;SDS011;5616;42.692;23.312;2022-09-17T06:11:29;9.93;;;3.97;;
11123;SDS011;5616;42.692;23.312;2022-09-17T06:13:57;6.87;;;4.03;;
11123;SDS011;5616;42.692;23.312;2022-09-17T06:16:24;9.43;;;4.03;;
11123;SDS011;5616;42.692;23.312;2022-09-17T06:18:51;10.50;;;4.60;;
11123;SDS011;5616;42.692;23.312;2022-09-17T06:21:18;10.63;;;4.30;;
11123;SDS011;5616;42.692;23.312;2022-09-17T06:23:47;8.80;;;3.90;;
11123;SDS011;5616;42.692;23.312;2022-09-17T06:26:14;10.17;;;3.60;;
11123;SDS011;5616;42.692;23.312;2022-09-17T06:28:41;6.30;;;3.50;;
11123;SDS011;5616;42.692;23.312;2022-09-17T06:31:10;5.27;;;3.10;;
11123;SDS011;5616;42.692;23.312;2022-09-17T06:33:38;8.13;;;3.23;;
11123;SDS011;5616;42.692;23.312;2022-09-17T06:36:06;6.90;;;3.10;;
11123;SDS011;5616;42.692;23.312;2022-09-17T06:38:35;4.77;;;2.80;;
11123;SDS011;5616;42.692;23.312;2022-09-17T06:41:02;7.23;;;2.70;;
11123;SDS011;5616;42.692;23.312;2022-09-17T06:43:30;7.00;;;3.33;;
11123;SDS011;5616;42.692;23.312;2022-09-17T06:45:57;8.70;;;3.03;;
11123;SDS011;5616;42.692;23.312;2022-09-17T06:48:27;3.40;;;2.50;;
11123;SDS011;5616;42.692;23.312;2022-09-17T06:50:57;3.90;;;2.40;;
11123;SDS011;5616;42.692;23.312;2022-09-17T06:53:28;5.33;;;2.40;;
11123;SDS011;5616;42.692;23.312;2022-09-17T06:55:55;5.43;;;3.30;;
11123;SDS011;5616;42.692;23.312;2022-09-17T06:58:23;5.83;;;2.90;;
11123;SDS011;5616;42.692;23.312;2022-09-17T07:00:51;8.77;;;3.53;;
11123;SDS011;5616;42.692;23.312;2022-09-17T07:03:18;12.20;;;6.50;;
11123;SDS011;5616;42.692;23.312;2022-09-17T07:05:49;7.10;;;3.43;;
11123;SDS011;5616;42.692;23.312;2022-09-17T07:08:15;10.80;;;5.03;;
11123;SDS011;5616;42.692;23.312;2022-09-17T07:10:43;11.33;;;5.33;;
11123;SDS011;5616;42.692;23.312;2022-09-17T07:13:09;12.43;;;4.33;;
11123;SDS011;5616;42.692;23.312;2022-09-17T07:15:36;9.17;;;4.47;;
11123;SDS011;5616;42.692;23.312;2022-09-17T07:18:06;10.23;;;3.80;;
11123;SDS011;5616;42.692;23.312;2022-09-17T07:20:34;15.53;;;7.13;;
11123;SDS011;5616;42.692;23.312;2022-09-17T07:23:02;12.07;;;4.53;;
11123;SDS011;5616;42.692;23.312;2022-09-17T07:25:29;13.23;;;4.93;;
11123;SDS011;5616;42.692;23.312;2022-09-17T07:27:56;7.80;;;4.30;;
11123;SDS011;5616;42.692;23.312;2022-09-17T07:30:23;6.37;;;4.00;;
11123;SDS011;5616;42.692;23.312;2022-09-17T07:32:50;7.43;;;4.10;;
11123;SDS011;5616;42.692;23.312;2022-09-17T07:35:17;10.83;;;3.67;;
11123;SDS011;5616;42.692;23.312;2022-09-17T07:37:44;10.27;;;3.77;;
11123;SDS011;5616;42.692;23.312;2022-09-17T07:40:12;6.50;;;3.40;;
11123;SDS011;5616;42.692;23.312;2022-09-17T07:42:39;7.30;;;3.37;;
11123;SDS011;5616;42.692;23.312;2022-09-17T07:45:07;8.63;;;2.90;;
11123;SDS011;5616;42.692;23.312;2022-09-17T07:47:37;6.53;;;2.70;;
11123;SDS011;5616;42.692;23.312;2022-09-17T07:50:04;10.13;;;2.60;;
11123;SDS011;5616;42.692;23.312;2022-09-17T07:52:32;9.53;;;2.80;;
11123;SDS011;5616;42.692;23.312;2022-09-17T07:54:59;5.60;;;2.30;;
11123;SDS011;5616;42.692;23.312;2022-09-17T07:57:27;6.33;;;2.50;;
11123;SDS011;5616;42.692;23.312;2022-09-17T07:59:54;5.07;;;2.27;;
11123;SDS011;5616;42.692;23.312;2022-09-17T08:02:21;5.03;;;2.30;;
11123;SDS011;5616;42.692;23.312;2022-09-17T08:04:48;4.00;;;2.20;;
11123;SDS011;5616;42.692;23.312;2022-09-17T08:07:14;6.97;;;2.30;;
11123;SDS011;5616;42.692;23.312;2022-09-17T08:09:41;4.43;;;2.27;;
11123;SDS011;5616;42.692;23.312;2022-09-17T08:12:08;4.83;;;2.20;;
11123;SDS011;5616;42.692;23.312;2022-09-17T08:14:36;6.37;;;2.13;;
11123;SDS011;5616;42.692;23.312;2022-09-17T08:17:05;5.43;;;2.50;;
11123;SDS011;5616;42.692;23.312;2022-09-17T08:19:32;8.07;;;3.10;;
11123;SDS011;5616;42.692;23.312;2022-09-17T08:21:59;4.27;;;2.17;;
11123;SDS011;5616;42.692;23.312;2022-09-17T08:24:26;5.83;;;3.10;;
11123;SDS011;5616;42.692;23.312;2022-09-17T08:26:53;4.57;;;2.20;;
11123;SDS011;5616;42.692;23.312;2022-09-17T08:29:20;9.77;;;4.57;;
11123;SDS011;5616;42.692;23.312;2022-09-17T08:31:48;5.63;;;2.80;;
11123;SDS011;5616;42.692;23.312;2022-09-17T08:34:15;4.30;;;2.10;;
11123;SDS011;5616;42.692;23.312;2022-09-17T08:36:42;7.80;;;3.72;;
11123;SDS011;5616;42.692;23.312;2022-09-17T08:39:08;7.68;;;3.53;;
11123;SDS011;5616;42.692;23.312;2022-09-17T08:41:42;3.22;;;1.90;;
11123;SDS011;5616;42.692;23.312;2022-09-17T08:44:22;6.70;;;2.00;;
11123;SDS011;5616;42.692;23.312;2022-09-17T08:46:56;5.25;;;1.80;;
11123;SDS011;5616;42.692;23.312;2022-09-17T08:49:32;3.15;;;1.77;;
11123;SDS011;5616;42.692;23.312;2022-09-17T08:52:13;3.13;;;1.75;;
11123;SDS011;5616;42.692;23.312;2022-09-17T08:54:54;2.20;;;1.73;;
11123;SDS011;5616;42.692;23.312;2022-09-17T08:57:29;5.65;;;2.10;;
11123;SDS011;5616;42.692;23.312;2022-09-17T09:00:07;4.47;;;2.00;;
11123;SDS011;5616;42.692;23.312;2022-09-17T09:02:42;3.78;;;1.83;;
11123;SDS011;5616;42.692;23.312;2022-09-17T09:05:22;4.78;;;2.00;;
11123;SDS011;5616;42.692;23.312;2022-09-17T09:07:55;4.18;;;1.95;;
11123;SDS011;5616;42.692;23.312;2022-09-17T09:10:28;4.03;;;1.80;;
11123;SDS011;5616;42.692;23.312;2022-09-17T09:13:02;4.70;;;1.92;;
11123;SDS011;5616;42.692;23.312;2022-09-17T09:15:31;2.88;;;2.05;;
11123;SDS011;5616;42.692;23.312;2022-09-17T09:18:08;5.85;;;2.35;;
11123;SDS011;5616;42.692;23.312;2022-09-17T09:20:43;4.27;;;2.00;;
11123;SDS011;5616;42.692;23.312;2022-09-17T09:23:17;7.60;;;2.67;;
11123;SDS011;5616;42.692;23.312;2022-09-17T09:25:53;5.77;;;2.40;;
11123;SDS011;5616;42.692;23.312;2022-09-17T09:31:28;7.27;;;3.60;;
11123;SDS011;5616;42.692;23.312;2022-09-17T09:34:14;7.03;;;2.70;;
11123;SDS011;5616;42.692;23.312;2022-09-17T09:36:42;5.03;;;3.03;;
11123;SDS011;5616;42.692;23.312;2022-09-17T09:39:12;5.67;;;3.43;;
11123;SDS011;5616;42.692;23.312;2022-09-17T09:41:45;6.63;;;3.40;;
11123;SDS011;5616;42.692;23.312;2022-09-17T09:44:14;5.37;;;3.27;;
11123;SDS011;5616;42.692;23.312;2022-09-17T09:46:45;7.60;;;3.67;;
11123;SDS011;5616;42.692;23.312;2022-09-17T09:49:41;8.27;;;3.10;;
11123;SDS011;5616;42.692;23.312;2022-09-17T09:52:28;9.57;;;3.37;;
11123;SDS011;5616;42.692;23.312;2022-09-17T09:55:19;8.63;;;3.80;;
11123;SDS011;5616;42.692;23.312;2022-09-17T09:58:02;9.00;;;4.10;;
11123;SDS011;5616;42.692;23.312;2022-09-17T10:00:36;10.93;;;5.03;;
11123;SDS011;5616;42.692;23.312;2022-09-17T10:03:08;9.20;;;3.77;;
11123;SDS011;5616;42.692;23.312;2022-09-17T10:05:49;8.67;;;4.50;;
11123;SDS011;5616;42.692;23.312;2022-09-17T10:08:19;7.33;;;3.20;;
11123;SDS011;5616;42.692;23.312;2022-09-17T10:10:52;7.27;;;4.40;;
11123;SDS011;5616;42.692;23.312;2022-09-17T10:13:21;8.93;;;4.63;;
11123;SDS011;5616;42.692;23.312;2022-09-17T10:15:47;7.27;;;3.90;;
11123;SDS011;5616;42.692;23.312;2022-09-17T10:18:15;7.80;;;3.80;;
11123;SDS011;5616;42.692;23.312;2022-09-17T10:23:43;6.60;;;3.37;;
11123;SDS011;5616;42.692;23.312;2022-09-17T10:26:18;5.87;;;4.00;;
11123;SDS011;5616;42.692;23.312;2022-09-17T10:28:48;7.27;;;4.60;;
11123;SDS011;5616;42.692;23.312;2022-09-17T10:31:17;7.10;;;4.40;;
11123;SDS011;5616;42.692;23.312;2022-09-17T10:33:50;7.77;;;4.33;;
11123;SDS011;5616;42.692;23.312;2022-09-17T10:39:19;9.53;;;5.13;;
11123;SDS011;5616;42.692;23.312;2022-09-17T10:41:54;7.97;;;4.10;;
11123;SDS011;5616;42.692;23.312;2022-09-17T10:44:23;8.07;;;4.07;;
11123;SDS011;5616;42.692;23.312;2022-09-17T10:46:51;6.57;;;3.63;;
11123;SDS011;5616;42.692;23.312;2022-09-17T10:49:23;5.47;;;3.33;;
11123;SDS011;5616;42.692;23.312;2022-09-17T10:52:07;6.97;;;3.50;;
11123;SDS011;5616;42.692;23.312;2022-09-17T10:54:43;5.53;;;4.10;;
11123;SDS011;5616;42.692;23.312;2022-09-17T10:57:24;6.27;;;3.40;;
11123;SDS011;5616;42.692;23.312;2022-09-17T11:00:03;6.60;;;3.60;;
11123;SDS011;5616;42.692;23.312;2022-09-17T11:05:52;7.70;;;3.50;;
11123;SDS011;5616;42.692;23.312;2022-09-17T11:08:41;6.47;;;3.00;;
11123;SDS011;5616;42.692;23.312;2022-09-17T11:11:17;7.07;;;2.90;;
11123;SDS011;5616;42.692;23.312;2022-09-17T11:13:59;5.17;;;3.33;;
11123;SDS011;5616;42.692;23.312;2022-09-17T11:16:35;5.20;;;3.30;;
11123;SDS011;5616;42.692;23.312;2022-09-17T11:19:11;5.93;;;2.80;;
11123;SDS011;5616;42.692;23.312;2022-09-17T11:21:47;5.63;;;2.97;;
11123;SDS011;5616;42.692;23.312;2022-09-17T11:27:17;8.30;;;3.37;;
11123;SDS011;5616;42.692;23.312;2022-09-17T11:30:02;5.40;;;3.20;;
11123;SDS011;5616;42.692;23.312;2022-09-17T11:32:41;5.23;;;3.33;;
11123;SDS011;5616;42.692;23.312;2022-09-17T11:35:20;4.77;;;3.20;;
11123;SDS011;5616;42.692;23.312;2022-09-17T11:37:51;6.73;;;3.27;;
11123;SDS011;5616;42.692;23.312;2022-09-17T11:40:29;7.93;;;3.33;;
11123;SDS011;5616;42.692;23.312;2022-09-17T11:43:01;7.33;;;3.00;;
11123;SDS011;5616;42.692;23.312;2022-09-17T11:45:37;4.70;;;2.30;;
11123;SDS011;5616;42.692;23.312;2022-09-17T11:48:09;4.23;;;2.37;;
11123;SDS011;5616;42.692;23.312;2022-09-17T11:50:40;5.13;;;2.40;;
11123;SDS011;5616;42.692;23.312;2022-09-17T11:53:13;6.13;;;3.10;;
11123;SDS011;5616;42.692;23.312;2022-09-17T11:55:46;5.37;;;3.07;;
11123;SDS011;5616;42.692;23.312;2022-09-17T11:58:20;3.83;;;2.40;;
11123;SDS011;5616;42.692;23.312;2022-09-17T12:00:53;4.87;;;2.30;;
11123;SDS011;5616;42.692;23.312;2022-09-17T12:03:27;5.97;;;2.40;;
11123;SDS011;5616;42.692;23.312;2022-09-17T12:06:01;4.70;;;2.67;;
11123;SDS011;5616;42.692;23.312;2022-09-17T12:08:36;4.57;;;2.23;;
11123;SDS011;5616;42.692;23.312;2022-09-17T12:11:10;4.63;;;2.23;;
11123;SDS011;5616;42.692;23.312;2022-09-17T12:13:43;5.60;;;2.43;;
11123;SDS011;5616;42.692;23.312;2022-09-17T12:16:17;4.03;;;2.17;;
11123;SDS011;5616;42.692;23.312;2022-09-17T12:18:51;2.93;;;2.10;;
11123;SDS011;5616;42.692;23.312;2022-09-17T12:21:24;5.63;;;3.07;;
11123;SDS011;5616;42.692;23.312;2022-09-17T12:23:56;5.90;;;2.90;;
11123;SDS011;5616;42.692;23.312;2022-09-17T12:26:33;5.10;;;2.87;;
11123;SDS011;5616;42.692;23.312;2022-09-17T12:29:18;6.67;;;2.47;;
11123;SDS011;5616;42.692;23.312;2022-09-17T12:31:57;5.13;;;2.47;;
11123;SDS011;5616;42.692;23.312;2022-09-17T12:34:37;3.47;;;2.17;;
11123;SDS011;5616;42.692;23.312;2022-09-17T12:37:16;12.17;;;7.77;;
11123;SDS011;5616;42.692;23.312;2022-09-17T12:39:54;7.83;;;2.80;;
11123;SDS011;5616;42.692;23.312;2022-09-17T12:42:35;11.43;;;6.53;;
11123;SDS011;5616;42.692;23.312;2022-09-17T12:45:14;6.30;;;3.23;;
11123;SDS011;5616;42.692;23.312;2022-09-17T12:48:00;6.00;;;3.60;;
11123;SDS011;5616;42.692;23.312;2022-09-17T12:50:47;6.80;;;3.60;;
11123;SDS011;5616;42.692;23.312;2022-09-17T12:53:25;6.67;;;4.10;;
11123;SDS011;5616;42.692;23.312;2022-09-17T12:55:58;7.77;;;4.73;;
11123;SDS011;5616;42.692;23.312;2022-09-17T12:58:48;6.20;;;3.83;;
11123;SDS011;5616;42.692;23.312;2022-09-17T13:01:27;6.13;;;3.63;;
11123;SDS011;5616;42.692;23.312;2022-09-17T13:15:57;5.23;;;3.27;;
11123;SDS011;5616;42.692;23.312;2022-09-17T13:18:33;5.47;;;3.00;;
11123;SDS011;5616;42.692;23.312;2022-09-17T13:21:05;3.83;;;2.90;;
11123;SDS011;5616;42.692;23.312;2022-09-17T13:23:39;5.73;;;2.87;;
11123;SDS011;5616;42.692;23.312;2022-09-17T13:26:09;4.90;;;3.23;;
11123;SDS011;5616;42.692;23.312;2022-09-17T13:28:38;4.17;;;3.20;;
11123;SDS011;5616;42.692;23.312;2022-09-17T13:31:08;4.50;;;3.23;;
11123;SDS011;5616;42.692;23.312;2022-09-17T13:33:50;7.67;;;3.10;;
11123;SDS011;5616;42.692;23.312;2022-09-17T13:36:37;4.10;;;2.80;;
11123;SDS011;5616;42.692;23.312;2022-09-17T13:39:11;3.67;;;2.50;;
11123;SDS011;5616;42.692;23.312;2022-09-17T13:42:04;6.40;;;2.87;;
11123;SDS011;5616;42.692;23.312;2022-09-17T13:44:35;6.80;;;2.63;;
11123;SDS011;5616;42.692;23.312;2022-09-17T13:47:12;5.40;;;2.70;;
11123;SDS011;5616;42.692;23.312;2022-09-17T13:49:44;4.40;;;2.37;;
11123;SDS011;5616;42.692;23.312;2022-09-17T13:52:27;4.70;;;2.30;;
11123;SDS011;5616;42.692;23.312;2022-09-17T13:54:59;5.40;;;2.47;;
11123;SDS011;5616;42.692;23.312;2022-09-17T13:57:26;2.83;;;2.27;;
11123;SDS011;5616;42.692;23.312;2022-09-17T13:59:56;6.13;;;3.10;;
11123;SDS011;5616;42.692;23.312;2022-09-17T14:02:27;11.17;;;4.00;;
11123;SDS011;5616;42.692;23.312;2022-09-17T14:08:10;8.30;;;4.13;;
11123;SDS011;5616;42.692;23.312;2022-09-17T14:10:39;5.17;;;3.53;;
11123;SDS011;5616;42.692;23.312;2022-09-17T14:13:33;7.33;;;3.87;;
11123;SDS011;5616;42.692;23.312;2022-09-17T14:16:25;8.67;;;4.93;;
11123;SDS011;5616;42.692;23.312;2022-09-17T14:19:01;10.73;;;4.37;;
11123;SDS011;5616;42.692;23.312;2022-09-17T14:21:55;7.77;;;4.00;;
11123;SDS011;5616;42.692;23.312;2022-09-17T14:24:31;8.63;;;4.17;;
11123;SDS011;5616;42.692;23.312;2022-09-17T14:30:05;8.27;;;3.53;;
11123;SDS011;5616;42.692;23.312;2022-09-17T14:32:42;4.27;;;3.43;;
11123;SDS011;5616;42.692;23.312;2022-09-17T14:35:16;6.60;;;3.43;;
11123;SDS011;5616;42.692;23.312;2022-09-17T14:37:48;5.43;;;3.80;;
11123;SDS011;5616;42.692;23.312;2022-09-17T14:40:19;6.00;;;3.70;;
11123;SDS011;5616;42.692;23.312;2022-09-17T14:42:48;8.73;;;3.73;;
11123;SDS011;5616;42.692;23.312;2022-09-17T14:45:20;3.67;;;2.90;;
11123;SDS011;5616;42.692;23.312;2022-09-17T14:50:52;4.37;;;2.70;;
11123;SDS011;5616;42.692;23.312;2022-09-17T14:53:19;6.00;;;3.40;;
11123;SDS011;5616;42.692;23.312;2022-09-17T14:55:46;8.20;;;3.13;;
11123;SDS011;5616;42.692;23.312;2022-09-17T14:58:24;6.93;;;3.13;;
11123;SDS011;5616;42.692;23.312;2022-09-17T15:00:55;5.23;;;3.27;;
11123;SDS011;5616;42.692;23.312;2022-09-17T15:03:22;4.70;;;3.07;;
11123;SDS011;5616;42.692;23.312;2022-09-17T15:05:51;5.00;;;2.75;;
11123;SDS011;5616;42.692;23.312;2022-09-17T15:08:19;6.23;;;2.70;;
11123;SDS011;5616;42.692;23.312;2022-09-17T15:10:49;5.43;;;3.93;;
11123;SDS011;5616;42.692;23.312;2022-09-17T15:13:19;4.27;;;3.27;;
11123;SDS011;5616;42.692;23.312;2022-09-17T15:15:57;7.20;;;3.17;;
11123;SDS011;5616;42.692;23.312;2022-09-17T15:18:31;6.13;;;2.90;;
11123;SDS011;5616;42.692;23.312;2022-09-17T15:21:03;4.67;;;2.50;;
11123;SDS011;5616;42.692;23.312;2022-09-17T15:23:40;3.57;;;1.90;;
11123;SDS011;5616;42.692;23.312;2022-09-17T15:26:09;4.63;;;2.00;;
11123;SDS011;5616;42.692;23.312;2022-09-17T15:28:38;3.47;;;1.97;;
11123;SDS011;5616;42.692;23.312;2022-09-17T15:31:11;3.00;;;1.80;;
11123;SDS011;5616;42.692;23.312;2022-09-17T15:33:42;3.93;;;2.10;;
11123;SDS011;5616;42.692;23.312;2022-09-17T15:36:14;4.07;;;2.00;;
11123;SDS011;5616;42.692;23.312;2022-09-17T15:38:45;3.53;;;2.17;;
11123;SDS011;5616;42.692;23.312;2022-09-17T15:46:48;3.77;;;2.17;;
11123;SDS011;5616;42.692;23.312;2022-09-17T15:49:31;4.37;;;3.43;;
11123;SDS011;5616;42.692;23.312;2022-09-17T15:52:24;5.70;;;2.90;;
11123;SDS011;5616;42.692;23.312;2022-09-17T15:54:55;8.37;;;3.93;;
11123;SDS011;5616;42.692;23.312;2022-09-17T15:57:22;4.83;;;3.17;;
11123;SDS011;5616;42.692;23.312;2022-09-17T15:59:51;3.10;;;2.73;;
11123;SDS011;5616;42.692;23.312;2022-09-17T16:02:24;3.90;;;2.90;;
11123;SDS011;5616;42.692;23.312;2022-09-17T16:07:58;5.00;;;2.77;;
11123;SDS011;5616;42.692;23.312;2022-09-17T16:10:43;4.87;;;3.07;;